Mountain Home Air Force Base
KMUO : now visible

Airfield :











YOU CAN JOIN US ON...

 
LOGIN :

Register | Disclaimer

   EN    FR    IT 

 









Legend :    VFR   Marginal VFR   IFR   Intensive IFR   Very Intensive IFR
Visi :
Ceiling :
>= 8 km
>= 3000ft
5 to 8 km
1000 to 3000 ft
1500m to 5 km
500 to 1000 ft
800 to 1500m
200 to 500 ft
< 800m
< 200 ft
Symbols :   Thunderstorms  Fog  Heavy snow  Heavy precipitations  Wind > 20 kt






- Airport Elevation : 2996 ft


KMUO - Mountain Home Air Force Base

CURRENT METAR :
  • 121758Z AUTO 09009KT 10SM CLR 20/M05 A3015 RMK AO2 SLP199 T02021049 10202 20032 57006 $

EXPIRED METARs :
  • 121658Z AUTO 10014KT 10SM CLR 18/M04 A3015 RMK AO2 SLP201 T01821039 $
  • 121558Z AUTO 10013KT 10SM CLR 15/M04 A3016 RMK AO2 SLP206 T01531036 $

TAF TAF KMUO
Valid from the 12 at 18:00 until the 14 at 00:00 UTC


121800Z 1218/1324 13012G18KT 9999 FEW090 SCT150 QNH2994INS
TEMPO 1221/1224 10012G22KT
BECMG 1304/1305 VRB06KT 9999 FEW100 BKN180 QNH2998INS
BECMG 1314/1315 30010G15KT 9999 SCT150 QNH2995INS
TEMPO 1321/1324 33015G25KT TX27/1223Z TN10/1312Z
KZLC FIR / North America



MET'MAP, your aeronautical weather chart ! - Copyright ORBIFLY December 2007 - Disclaimer

ORBIFLY MET'MAP TEAM :

Programming & Development : Alexandra Zaïnal
Concept & original design : Baudouin d'Aumeries
Assistance for programming : Marc-Olivier Méhu
Technical & hardware support : Manuel Goepfert

Contact : metmap@orbifly.com




SOURCES & CREDITS :

   NOAA       Earth
Advisory